CheckWX is a tool to help pilots better visualize weather data.  It is not intended as a substitute for an official pre-flight weather briefing.

21:46:54 UTC

0A9 METAR
Elizabethton Municipal Airport
Elizabethton, Tennessee, USA
Current

27 mins ago

K0A9 232120Z AUTO 27007G15KT 230V310 10SM CLR 30/16 A3018 RMK AO2
Observed
May-23 @ 21:20 UTC
Wind
  • 270° at 7 KTS
  • Gusting to 15 KTS
Visibility
10 SM
Flight Rules
VFR
Cloud Levels
  • Clear skies
Temperature
30°C / 86°F
Dewpoint
16°C / 61°F
Heat Index
30°C / 86°F
Humidity
43%
Altimeter
30.18" Hg
Pressure
1022.02 hPa
Previous

47 mins ago

K0A9 232100Z AUTO 26008G14KT 230V290 10SM CLR 30/15 A3019 RMK AO2
Observed
May-23 @ 21:00 UTC
Wind
  • 260° at 8 KTS
  • Gusting to 14 KTS
Visibility
10 SM
Flight Rules
VFR
Cloud Levels
  • Clear skies
Temperature
30°C / 86°F
Dewpoint
15°C / 59°F
Heat Index
29°C / 85°F
Humidity
40%
Altimeter
30.19" Hg
Pressure
1022.32 hPa
Previous

1 hour ago

K0A9 232040Z AUTO 29008KT 260V320 10SM CLR 30/16 A3019 RMK AO2
Observed
May-23 @ 20:40 UTC
Wind
  • 290° at 8 KTS
Visibility
10 SM
Flight Rules
VFR
Cloud Levels
  • Clear skies
Temperature
30°C / 86°F
Dewpoint
16°C / 61°F
Heat Index
30°C / 86°F
Humidity
43%
Altimeter
30.19" Hg
Pressure
1022.32 hPa